createdAt,value
2023-02-15T00:02:11.581Z,20.73
2023-02-15T00:04:54.665Z,21.85
2023-02-15T00:07:23.490Z,21.67
2023-02-15T00:15:36.017Z,19.05
2023-02-15T00:18:12.710Z,19.48
2023-02-15T00:20:42.432Z,17.50
2023-02-15T00:23:12.152Z,21.33
2023-02-15T00:25:44.071Z,19.10
2023-02-15T00:28:13.810Z,20.73
2023-02-15T00:30:40.345Z,22.60
2023-02-15T00:33:16.222Z,19.85
2023-02-15T00:35:51.432Z,21.40
2023-02-15T00:38:17.975Z,21.73
2023-02-15T00:40:55.847Z,21.55
2023-02-15T00:46:59.384Z,25.35
2023-02-15T00:49:27.969Z,27.48
2023-02-15T00:52:08.302Z,28.27
2023-02-15T00:54:39.743Z,30.05
2023-02-15T00:57:15.004Z,28.27
2023-02-15T00:59:43.306Z,31.33
2023-02-15T01:02:13.346Z,28.63
2023-02-15T01:04:39.866Z,28.85
2023-02-15T01:07:09.238Z,27.52
2023-02-15T01:09:44.141Z,28.42
2023-02-15T01:12:13.186Z,28.50
2023-02-15T01:14:39.678Z,28.10
2023-02-15T01:17:09.660Z,26.23
2023-02-15T01:19:36.310Z,28.85
2023-02-15T01:22:02.731Z,27.42
2023-02-15T01:24:29.157Z,25.38
2023-02-15T01:27:00.374Z,24.02
2023-02-15T01:29:29.146Z,26.58
2023-02-15T01:31:57.814Z,24.33
2023-02-15T01:34:24.366Z,26.73
2023-02-15T01:36:54.213Z,24.98
2023-02-15T01:39:23.591Z,24.20
2023-02-15T01:41:51.976Z,22.25
2023-02-15T01:44:41.449Z,22.50
2023-02-15T01:47:12.819Z,22.30
2023-02-15T01:49:44.054Z,23.20
2023-02-15T01:52:14.452Z,24.00
2023-02-15T01:54:41.911Z,21.58
2023-02-15T01:57:14.262Z,23.58
2023-02-15T01:59:48.942Z,23.25
2023-02-15T02:02:17.676Z,22.67
2023-02-15T02:04:57.895Z,21.75
2023-02-15T02:07:27.737Z,24.08
2023-02-15T02:09:54.245Z,23.25
2023-02-15T02:12:22.184Z,21.60
2023-02-15T02:14:51.939Z,20.27
2023-02-15T02:17:24.510Z,23.48
2023-02-15T02:20:12.999Z,20.83
2023-02-15T02:22:59.669Z,20.35
2023-02-15T02:25:45.106Z,20.25
2023-02-15T02:28:50.150Z,20.77
2023-02-15T02:31:39.520Z,22.02
2023-02-15T02:34:24.474Z,23.90
2023-02-15T02:36:59.565Z,21.48
2023-02-15T02:39:41.173Z,19.50
2023-02-15T02:42:15.067Z,20.80
2023-02-15T02:44:50.174Z,21.98
2023-02-15T02:47:38.767Z,21.35
2023-02-15T02:50:10.180Z,21.65
2023-02-15T02:52:47.606Z,23.85
2023-02-15T02:55:20.951Z,20.60
2023-02-15T02:58:04.440Z,23.13
2023-02-15T03:00:35.386Z,22.60
2023-02-15T03:03:06.394Z,20.95
2023-02-15T03:05:33.685Z,20.02
2023-02-15T03:08:07.034Z,20.88
2023-02-15T03:10:35.923Z,20.27
2023-02-15T03:13:02.501Z,19.73
2023-02-15T03:15:54.298Z,19.65
2023-02-15T03:18:23.642Z,18.23
2023-02-15T03:20:50.616Z,17.23
2023-02-15T03:23:19.323Z,18.90
2023-02-15T03:25:49.594Z,17.77
2023-02-15T03:28:24.412Z,18.73
2023-02-15T03:30:54.088Z,19.48
2023-02-15T03:33:21.210Z,17.52
2023-02-15T03:36:26.571Z,19.15
2023-02-15T03:39:00.835Z,17.98
2023-02-15T03:41:35.568Z,17.60
2023-02-15T03:44:06.339Z,20.13
2023-02-15T03:46:34.718Z,18.00
2023-02-15T03:49:12.917Z,19.00
2023-02-15T03:51:41.321Z,18.88
2023-02-15T03:54:12.674Z,19.63
2023-02-15T03:56:40.932Z,21.33
2023-02-15T03:59:26.129Z,16.98
2023-02-15T04:01:58.731Z,19.48
2023-02-15T04:04:36.333Z,18.80
2023-02-15T04:07:04.143Z,18.85
2023-02-15T04:09:49.301Z,18.75
2023-02-15T04:12:15.791Z,17.38
2023-02-15T04:15:01.011Z,19.50
2023-02-15T04:17:28.583Z,18.52
2023-02-15T04:20:13.573Z,20.83
2023-02-15T04:22:58.862Z,20.17
2023-02-15T04:25:25.528Z,19.60
2023-02-15T04:27:53.612Z,19.90
2023-02-15T04:30:25.011Z,19.55
2023-02-15T04:32:52.110Z,19.17
2023-02-15T04:35:19.065Z,19.63
2023-02-15T04:37:47.366Z,17.80
2023-02-15T04:40:14.614Z,19.13
2023-02-15T04:42:41.318Z,19.98
2023-02-15T04:45:08.323Z,18.98
2023-02-15T04:47:35.109Z,18.60
2023-02-15T04:50:01.684Z,21.80
2023-02-15T04:52:28.165Z,18.63
2023-02-15T04:54:54.621Z,20.15
2023-02-15T04:57:21.205Z,17.80
2023-02-15T04:59:47.705Z,18.65
2023-02-15T05:02:14.373Z,18.85
2023-02-15T05:04:40.824Z,16.77
2023-02-15T05:07:07.344Z,17.48
2023-02-15T05:09:33.846Z,16.77
2023-02-15T05:12:00.344Z,19.02
2023-02-15T05:14:26.845Z,16.95
2023-02-15T05:16:55.135Z,16.63
2023-02-15T05:19:21.724Z,16.95
2023-02-15T05:21:48.255Z,18.67
2023-02-15T05:24:33.492Z,19.63
2023-02-15T05:27:18.672Z,18.25
2023-02-15T05:29:45.067Z,19.10
2023-02-15T05:32:13.389Z,17.17
2023-02-15T05:34:39.944Z,18.73
2023-02-15T05:37:06.485Z,18.90
2023-02-15T05:39:32.944Z,17.38
2023-02-15T05:42:00.617Z,19.15
2023-02-15T05:44:27.012Z,18.60
2023-02-15T05:46:53.500Z,17.45
2023-02-15T05:49:19.937Z,16.45
2023-02-15T05:51:46.412Z,16.48
2023-02-15T05:54:12.844Z,17.73
2023-02-15T05:56:39.238Z,16.92
2023-02-15T05:59:05.853Z,17.70
2023-02-15T06:01:32.322Z,19.08
2023-02-15T06:03:58.807Z,18.15
2023-02-15T06:06:25.224Z,16.02
2023-02-15T06:08:51.834Z,17.50
2023-02-15T06:11:18.375Z,15.75
2023-02-15T06:13:44.920Z,16.75
2023-02-15T06:16:16.873Z,15.55
2023-02-15T06:18:43.992Z,17.65
2023-02-15T06:21:10.409Z,17.58
2023-02-15T06:23:36.981Z,16.63
2023-02-15T12:30:41.493Z,12.68
2023-02-15T12:33:26.626Z,10.45
2023-02-15T12:35:58.815Z,12.23
2023-02-15T12:38:25.717Z,10.48
2023-02-15T12:40:59.745Z,12.63
2023-02-15T12:43:27.524Z,10.02
2023-02-15T12:45:54.017Z,11.13
2023-02-15T12:48:21.239Z,11.43
2023-02-15T12:50:54.714Z,10.32
2023-02-15T12:53:34.839Z,11.60
2023-02-15T12:56:02.725Z,12.93
2023-02-15T12:58:33.024Z,10.45
2023-02-15T13:01:14.736Z,11.32
2023-02-15T13:04:01.551Z,10.95
2023-02-15T13:06:28.862Z,10.95
2023-02-15T13:08:56.915Z,11.73
2023-02-15T13:11:27.603Z,12.07
2023-02-15T13:13:55.767Z,11.40
2023-02-15T13:16:32.963Z,11.70
2023-02-15T13:19:01.840Z,11.70
2023-02-15T13:21:33.092Z,12.30
2023-02-15T13:24:06.086Z,11.43
2023-02-15T13:26:33.555Z,10.52
2023-02-15T13:29:02.447Z,11.70
2023-02-15T13:31:34.249Z,10.18
2023-02-15T13:34:08.517Z,10.35
2023-02-15T13:36:50.292Z,12.50
2023-02-15T13:39:16.695Z,10.07
2023-02-15T13:41:53.178Z,9.93
2023-02-15T13:44:28.925Z,10.65
2023-02-15T13:47:03.120Z,9.73
2023-02-15T13:49:40.788Z,11.20
2023-02-15T13:52:33.544Z,10.77
2023-02-15T13:55:22.020Z,9.93
2023-02-15T13:57:57.504Z,9.98
2023-02-15T14:00:29.150Z,11.55
2023-02-15T14:03:21.021Z,10.38
2023-02-15T14:06:13.964Z,10.45
2023-02-15T14:08:52.857Z,9.73
2023-02-15T14:11:19.245Z,9.93
2023-02-15T14:13:50.372Z,10.07
2023-02-15T14:16:20.546Z,9.40
2023-02-15T14:18:52.494Z,10.32
2023-02-15T14:21:25.180Z,9.30
2023-02-15T14:24:00.738Z,9.88
2023-02-15T14:26:42.800Z,10.02
2023-02-15T14:29:21.230Z,10.18
2023-02-15T14:31:50.474Z,9.38
2023-02-15T14:34:31.236Z,10.45
2023-02-15T14:36:57.958Z,8.45
2023-02-15T14:40:01.636Z,11.15
2023-02-15T14:42:31.019Z,9.45
2023-02-15T14:45:15.422Z,9.43
2023-02-15T14:47:43.397Z,10.10
2023-02-15T14:50:29.133Z,10.48
2023-02-15T14:53:15.459Z,10.82
2023-02-15T14:55:41.893Z,9.85
2023-02-15T14:58:12.525Z,9.63
2023-02-15T15:00:39.863Z,11.13
2023-02-15T15:03:32.828Z,10.27
2023-02-15T15:06:02.301Z,10.63
2023-02-15T15:08:34.369Z,10.88
2023-02-15T15:11:42.164Z,10.57
2023-02-15T15:14:10.117Z,10.52
2023-02-15T15:16:36.709Z,10.30
2023-02-15T15:19:04.415Z,10.20
2023-02-15T15:21:49.193Z,10.00
2023-02-15T15:24:34.363Z,12.15
2023-02-15T15:27:19.626Z,10.75
2023-02-15T15:29:46.002Z,11.02
2023-02-15T15:32:13.840Z,10.77
2023-02-15T15:34:55.081Z,11.02
2023-02-15T15:37:41.967Z,9.32
2023-02-15T15:40:26.372Z,10.55
2023-02-15T15:42:55.776Z,9.70
2023-02-15T15:45:39.644Z,11.30
2023-02-15T15:48:18.254Z,10.02
2023-02-15T15:50:44.676Z,9.32
2023-02-15T15:53:19.243Z,10.02
2023-02-15T15:55:47.448Z,11.13
2023-02-15T15:58:16.631Z,10.77
2023-02-15T16:00:48.420Z,10.10
2023-02-15T16:03:24.961Z,10.45
2023-02-15T16:05:55.347Z,10.30
2023-02-15T16:11:23.872Z,9.75
2023-02-15T16:13:50.614Z,12.82
2023-02-15T16:16:29.285Z,12.50
2023-02-15T16:18:58.800Z,13.32
2023-02-15T16:21:29.640Z,12.57
2023-02-15T16:24:05.193Z,11.95
2023-02-15T16:26:49.960Z,11.82
2023-02-15T16:29:17.266Z,12.43
2023-02-15T16:31:43.982Z,13.85
2023-02-15T16:34:18.432Z,14.60
2023-02-15T16:36:44.804Z,13.25
2023-02-15T16:39:18.387Z,12.13
2023-02-15T16:41:46.970Z,15.27
2023-02-15T16:44:17.202Z,13.10
2023-02-15T16:46:45.650Z,15.18
2023-02-15T16:49:18.064Z,16.13
2023-02-15T16:51:45.798Z,15.90
2023-02-15T16:54:18.229Z,18.80
2023-02-15T16:56:46.995Z,17.05
2023-02-15T16:59:32.220Z,16.77
2023-02-15T17:02:00.528Z,16.98
2023-02-15T17:04:33.381Z,17.65
2023-02-15T17:07:00.452Z,17.60
2023-02-15T17:09:27.034Z,17.88
2023-02-15T17:11:54.347Z,16.70
2023-02-15T17:14:27.531Z,16.58
2023-02-15T17:16:54.961Z,16.52
2023-02-15T17:19:32.306Z,16.35
2023-02-15T17:22:09.035Z,18.60
2023-02-15T17:24:39.230Z,17.63
2023-02-15T17:27:07.783Z,18.33
2023-02-15T17:29:36.768Z,18.67
2023-02-15T17:32:07.742Z,21.13
2023-02-15T17:34:43.596Z,22.08
2023-02-15T17:37:12.811Z,21.08
2023-02-15T17:39:39.091Z,22.83
2023-02-15T17:42:05.527Z,20.58
2023-02-15T17:44:31.805Z,22.90
2023-02-15T17:46:58.193Z,26.67
2023-02-15T17:49:26.065Z,26.73
2023-02-15T17:51:52.707Z,24.85
2023-02-15T17:54:37.849Z,21.02
2023-02-15T17:57:06.932Z,21.48
2023-02-15T17:59:33.393Z,23.27
2023-02-15T18:02:18.600Z,22.00
2023-02-15T18:05:03.966Z,21.00
2023-02-15T18:07:55.036Z,21.88
2023-02-15T18:10:49.010Z,21.27
2023-02-15T18:13:15.504Z,20.45
2023-02-15T18:15:41.931Z,19.88
2023-02-15T18:18:09.508Z,21.52
2023-02-15T18:20:37.189Z,20.70
2023-02-15T18:23:03.575Z,18.75
2023-02-15T18:25:29.876Z,23.23
